createdAt,value
2023-02-23T00:12:03.777Z,29
2023-02-23T00:41:03.631Z,28
2023-02-23T01:09:46.834Z,28
2023-02-23T01:38:45.724Z,27
2023-02-23T02:07:39.792Z,23
2023-02-23T02:36:38.695Z,21
2023-02-23T03:05:33.442Z,22
2023-02-23T03:34:33.492Z,20
2023-02-23T04:03:34.004Z,20
2023-02-23T04:32:28.483Z,21
2023-02-23T05:01:19.990Z,22
2023-02-23T05:30:07.406Z,23
2023-02-23T05:58:51.084Z,23
2023-02-23T06:27:41.880Z,23
2023-02-23T06:56:35.368Z,23
2023-02-23T07:25:34.830Z,30
2023-02-23T07:54:35.495Z,26
2023-02-23T08:23:34.514Z,22
2023-02-23T08:51:53.207Z,23
2023-02-23T09:20:18.223Z,20
2023-02-23T09:49:22.187Z,22
2023-02-23T10:18:07.506Z,21
2023-02-23T10:47:15.693Z,22
2023-02-23T11:16:20.589Z,20
2023-02-23T11:45:08.238Z,20
2023-02-23T12:13:56.945Z,20
2023-02-23T12:42:21.490Z,22
2023-02-23T13:11:01.511Z,22
2023-02-23T13:39:29.567Z,23
2023-02-23T14:07:40.182Z,23
2023-02-23T14:35:58.120Z,25
2023-02-23T15:04:26.152Z,25
2023-02-23T15:32:41.577Z,30
2023-02-23T16:00:55.928Z,36
2023-02-23T16:29:36.541Z,36
2023-02-23T16:58:30.441Z,38
2023-02-23T17:27:25.767Z,43
2023-02-23T17:56:29.015Z,53
2023-02-23T18:25:28.762Z,49
2023-02-23T18:54:29.950Z,48
2023-02-23T19:23:25.891Z,50
2023-02-23T19:52:23.709Z,55
2023-02-23T20:21:16.424Z,47
2023-02-23T20:50:08.663Z,50
2023-02-23T21:19:09.456Z,45
2023-02-23T21:48:06.491Z,41
2023-02-23T22:17:10.150Z,37
2023-02-23T22:45:51.586Z,34
2023-02-23T23:14:58.745Z,33
2023-02-23T23:44:04.011Z,41
